Terminal Aerodrome Forecast
Issued by NWS Tuscon, AZ

Home | Current Version | Previous Version | Text Only | Print | Product List | Glossary On
Versions: 1 2 3 4 5 6 7 8 9 10 11 12 13
932
FTUS45 KTWC 140537
TAFDUG
TAF
KDUG 140537Z 1406/1506 01009KT P6SM BKN250
     FM141000 VRB04KT P6SM BKN250
     FM142000 34008KT P6SM SCT250=

USA.gov is the U.S. government's official web portal to all federal, state and local government web resources and services.